Waterport, New York
Current Conditions -  °F | °C
As of 12:25 AM on Thursday 27 Nov 2014 (Local Time) from KROC Reporting Station
Light Snow Light Snow  
Wind Chill: 23°   Ceiling: 3100
Heat Index: 30°   Visibility: 3mi
Dew Point: 27°   Wind: 7mph
Humidity: 88%   Direction: 360°N
Pressure: 30.04"   Gusts: NA
Location:  43.32°N, 78.25°W
Report Text: KROC 270525Z 36006KT 3SM -SN BR OVC031 M01/M03 A3004 RMK AO2 P0001 T10111028
Loading
Personal Weather Stations






























Interactive Weather Map New forecast layout! Learn more

10-Day Weather Forecast

Advertisements
Track Severe Weather on mobile